Time;durP1;ratioP1;P1;durP2;ratioP2;P2;SDS_P1;SDS_P2;PMS_P1;PMS_P2;Temp;Humidity;BMP_temperature;BMP_pressure;BME280_temperature;BME280_humidity;BME280_pressure;Samples;Min_cycle;Max_cycle;Signal;HPM_P1;HPM_P2
2023/01/10 00:02:08;;;;;;;2.15;1.75;;;;;;;8.28;92.48;97923.88;4415424;32;34452;-71
2023/01/10 00:04:36;;;;;;;2.78;1.80;;;;;;;8.30;91.37;97918.66;4424018;32;33925;-71
2023/01/10 00:07:04;;;;;;;0.43;0.43;;;;;;;8.22;91.61;97924.00;4423642;32;34909;-69
2023/01/10 00:09:32;;;;;;;1.35;1.25;;;;;;;7.75;94.54;97921.66;4423532;32;35004;-69
2023/01/10 00:14:48;;;;;;;0.82;0.82;;;;;;;8.20;92.08;97924.94;4423583;32;33905;-69
2023/01/10 00:17:17;;;;;;;0.47;0.47;;;;;;;8.15;92.54;97918.16;4423425;32;35808;-74
2023/01/10 00:19:45;;;;;;;0.70;0.70;;;;;;;7.89;93.39;97908.38;4423772;32;35171;-71
2023/01/10 00:22:13;;;;;;;0.82;0.82;;;;;;;8.03;93.63;97914.97;4423762;32;34262;-74
2023/01/10 00:24:42;;;;;;;1.48;1.25;;;;;;;8.03;92.79;97905.47;4423484;32;33976;-71
2023/01/10 00:27:11;;;;;;;1.30;1.20;;;;;;;8.29;91.16;97911.75;4423569;32;35142;-75
2023/01/10 00:29:40;;;;;;;0.60;0.60;;;;;;;8.16;91.23;97896.50;4423532;32;34545;-73
2023/01/10 00:32:08;;;;;;;0.85;0.82;;;;;;;8.02;92.70;97895.13;4422608;32;33662;-73
2023/01/10 00:34:36;;;;;;;0.85;0.85;;;;;;;8.30;91.50;97896.16;4423577;32;33903;-71
2023/01/10 00:37:04;;;;;;;0.65;0.65;;;;;;;8.54;89.70;97884.34;4422554;32;35029;-74
2023/01/10 00:39:32;;;;;;;1.27;0.90;;;;;;;8.62;88.08;97891.09;4423480;32;34530;-74
2023/01/10 00:44:47;;;;;;;0.73;0.73;;;;;;;8.46;89.42;97888.88;4423482;32;33823;-70
2023/01/10 00:47:16;;;;;;;0.70;0.70;;;;;;;8.01;92.03;97893.41;4423437;32;35956;-71
2023/01/10 00:49:43;;;;;;;0.88;0.88;;;;;;;7.93;91.86;97891.88;4423216;32;34446;-75
2023/01/10 00:52:12;;;;;;;0.68;0.68;;;;;;;7.77;93.53;97899.13;4423457;32;33666;-74
2023/01/10 00:54:40;;;;;;;0.40;0.40;;;;;;;7.71;93.54;97898.41;4423327;32;33858;-74
2023/01/10 00:57:08;;;;;;;0.70;0.70;;;;;;;7.67;93.58;97897.63;4423417;32;35102;-75
2023/01/10 00:59:36;;;;;;;0.55;0.55;;;;;;;7.49;94.84;97905.81;4423492;32;34228;-73
2023/01/10 01:02:04;;;;;;;0.50;0.50;;;;;;;7.43;95.57;97905.94;4423215;32;33016;-75
2023/01/10 01:04:33;;;;;;;1.95;0.88;;;;;;;7.68;92.60;97894.16;4423169;32;34776;-74
2023/01/10 01:07:01;;;;;;;0.60;0.60;;;;;;;7.75;92.80;97900.06;4423037;32;35066;-73
2023/01/10 01:09:29;;;;;;;1.52;1.25;;;;;;;7.66;93.86;97893.34;4422961;32;34439;-74
2023/01/10 01:11:57;;;;;;;0.60;0.60;;;;;;;7.69;92.51;97893.25;4423148;32;34466;-74
2023/01/10 01:14:26;;;;;;;0.57;0.57;;;;;;;7.59;94.44;97899.56;4422958;32;34656;-75
2023/01/10 01:16:54;;;;;;;0.88;0.88;;;;;;;7.62;92.54;97899.47;4422982;32;34963;-78
2023/01/10 01:19:22;;;;;;;1.10;1.10;;;;;;;6.97;95.98;97895.66;4422910;32;34435;-73
2023/01/10 01:21:50;;;;;;;0.80;0.80;;;;;;;7.05;96.53;97892.06;4422853;32;34236;-74
2023/01/10 01:24:20;;;;;;;0.57;0.57;;;;;;;7.46;95.22;97883.41;4422659;32;33922;-75
2023/01/10 01:26:48;;;;;;;0.43;0.43;;;;;;;7.45;93.39;97897.28;4422804;32;35766;-74
2023/01/10 01:29:16;;;;;;;1.35;1.25;;;;;;;7.28;94.48;97897.63;4422610;32;34329;-75
2023/01/10 01:31:45;;;;;;;0.40;0.40;;;;;;;7.40;94.05;97894.75;4434200;32;33523;-74
2023/01/10 01:34:13;;;;;;;0.73;0.73;;;;;;;6.80;97.35;97893.38;4422641;32;34684;-74
2023/01/10 01:36:41;;;;;;;0.70;0.70;;;;;;;7.03;96.17;97892.94;4421441;32;35150;-77
2023/01/10 01:39:09;;;;;;;0.65;0.65;;;;;;;6.94;96.58;97903.47;4422565;32;34475;-75
2023/01/10 01:44:31;;;;;;;0.62;0.62;;;;;;;7.11;95.89;97894.50;4422589;32;33792;-75
2023/01/10 01:47:02;;;;;;;0.88;0.88;;;;;;;6.75;99.78;97894.34;4421348;32;35908;-74
2023/01/10 01:49:32;;;;;;;0.40;0.40;;;;;;;7.15;96.91;97897.03;4424151;32;34170;-72
2023/01/10 01:52:04;;;;;;;0.50;0.50;;;;;;;6.78;98.14;97900.31;4424723;32;34301;-76
2023/01/10 01:54:33;;;;;;;0.40;0.40;;;;;;;6.86;98.35;97902.75;4423677;32;33886;-77
2023/01/10 01:57:14;;;;;;;0.40;0.40;;;;;;;6.96;95.00;97888.75;4423515;32;34885;-67
2023/01/10 01:59:44;;;;;;;0.50;0.50;;;;;;;6.53;97.04;97894.75;4424589;32;35151;-70
2023/01/10 02:02:19;;;;;;;0.68;0.68;;;;;;;6.45;98.33;97896.63;4423532;32;33441;-72
2023/01/10 02:04:55;;;;;;;0.93;0.93;;;;;;;6.34;99.27;97907.13;4423649;32;34615;-76
2023/01/10 02:07:25;;;;;;;0.50;0.50;;;;;;;6.15;100.00;97909.16;4423515;32;35022;-76
2023/01/10 02:10:08;;;;;;;0.50;0.50;;;;;;;6.26;100.00;97920.19;4423341;32;34286;-76
2023/01/10 02:12:37;;;;;;;0.60;0.60;;;;;;;6.74;98.67;97923.69;4423545;32;33403;-68
2023/01/10 02:15:05;;;;;;;0.50;0.50;;;;;;;6.31;99.13;97914.94;4424589;32;34594;-72
2023/01/10 02:17:33;;;;;;;0.50;0.50;;;;;;;6.19;100.00;97918.56;4424539;32;35028;-76
2023/01/10 02:20:07;;;;;;;0.75;0.73;;;;;;;6.79;97.59;97921.88;4424515;32;34335;-76
2023/01/10 02:22:56;;;;;;;0.50;0.50;;;;;;;6.39;97.81;97922.59;4424701;32;33871;-69
2023/01/10 02:25:43;;;;;;;0.50;0.50;;;;;;;6.13;100.00;97918.69;4424477;32;34262;-72
2023/01/10 02:28:45;;;;;;;0.60;0.60;;;;;;;6.27;100.00;97918.47;4424545;32;36022;-77
2023/01/10 02:31:19;;;;;;;0.47;0.47;;;;;;;6.29;98.59;97910.69;4424357;32;34191;-75
2023/01/10 02:34:13;;;;;;;0.40;0.40;;;;;;;5.99;100.00;97912.87;4424526;32;34501;-73
2023/01/10 02:37:05;;;;;;;0.40;0.40;;;;;;;6.23;99.24;97912.50;4423246;32;33926;-73
2023/01/10 02:39:55;;;;;;;0.57;0.57;;;;;;;6.20;99.40;97912.53;4423319;32;35777;-78
2023/01/10 02:42:38;;;;;;;0.50;0.50;;;;;;;5.91;100.00;97905.19;4424406;32;34479;-72
2023/01/10 02:45:21;;;;;;;0.50;0.50;;;;;;;6.05;100.00;97905.91;4423394;32;34338;-68
2023/01/10 02:47:50;;;;;;;0.60;0.60;;;;;;;6.40;98.01;97909.59;4424340;32;34011;-68
2023/01/10 02:50:44;;;;;;;0.52;0.52;;;;;;;6.38;97.52;97905.34;4424342;32;35203;-72
2023/01/10 02:53:12;;;;;;;0.50;0.50;;;;;;;6.07;99.66;97901.53;4423224;32;34798;-74
2023/01/10 02:55:53;;;;;;;0.50;0.50;;;;;;;6.14;99.33;97907.47;4424338;32;33561;-68
2023/01/10 02:58:44;;;;;;;0.50;0.50;;;;;;;6.14;99.45;97907.47;4424332;32;33991;-67
2023/01/10 03:01:43;;;;;;;0.50;0.50;;;;;;;6.06;100.00;97914.50;4423660;32;35147;-72
2023/01/10 03:04:17;;;;;;;0.50;0.50;;;;;;;6.26;99.01;97916.75;4424329;32;34574;-71
2023/01/10 03:07:00;;;;;;;0.70;0.70;;;;;;;6.06;100.00;97920.50;4424307;32;34278;-69
2023/01/10 03:09:34;;;;;;;0.50;0.50;;;;;;;6.11;100.00;97923.03;4423400;32;33939;-71
2023/01/10 03:12:13;;;;;;;0.50;0.50;;;;;;;5.95;100.00;97927.53;4423073;32;35119;-74
2023/01/10 03:14:42;;;;;;;0.50;0.50;;;;;;;5.62;100.00;97926.28;4423111;32;34439;-73
2023/01/10 03:17:11;;;;;;;0.50;0.50;;;;;;;6.05;100.00;97923.97;4422984;32;34227;-76
2023/01/10 03:19:55;;;;;;;0.50;0.50;;;;;;;5.85;100.00;97923.38;4424367;32;33788;-73
2023/01/10 03:22:25;;;;;;;0.50;0.50;;;;;;;6.17;99.84;97919.47;4424137;32;35224;-73
2023/01/10 03:24:55;;;;;;;0.47;0.47;;;;;;;6.02;100.00;97928.34;4424008;32;35125;-73
2023/01/10 03:27:23;;;;;;;0.60;0.60;;;;;;;5.79;100.00;97926.03;4423130;32;32922;-72
2023/01/10 03:29:55;;;;;;;0.50;0.50;;;;;;;5.83;100.00;97928.56;4424086;32;33562;-72
2023/01/10 03:32:26;;;;;;;0.50;0.50;;;;;;;5.80;100.00;97923.44;4424074;32;35028;-73
2023/01/10 03:34:54;;;;;;;0.50;0.50;;;;;;;5.71;100.00;97933.91;4422908;32;34405;-73
2023/01/10 03:37:28;;;;;;;1.02;1.02;;;;;;;5.85;100.00;97939.72;4423928;32;33440;-70
2023/01/10 03:40:04;;;;;;;0.50;0.50;;;;;;;5.73;100.00;97936.47;4424074;32;34011;-68
2023/01/10 03:46:04;;;;;;;0.40;0.40;;;;;;;5.88;100.00;97931.94;4423009;32;35148;-73
2023/01/10 03:48:36;;;;;;;0.40;0.40;;;;;;;6.26;99.56;97932.25;4402863;32;33221;-71
2023/01/10 03:51:05;;;;;;;0.50;0.50;;;;;;;5.82;100.00;97936.34;4422928;32;33880;-74
2023/01/10 03:53:34;;;;;;;0.50;0.50;;;;;;;6.04;100.00;97939.50;4419486;32;35093;-69
2023/01/10 03:56:03;;;;;;;0.57;0.57;;;;;;;5.92;100.00;97944.81;4435177;32;35098;-71
2023/01/10 03:58:32;;;;;;;0.50;0.50;;;;;;;5.73;100.00;97941.63;4428072;32;33302;-70
2023/01/10 04:01:01;;;;;;;0.52;0.52;;;;;;;5.93;100.00;97947.38;4437766;32;33962;-71
2023/01/10 04:03:29;;;;;;;0.50;0.50;;;;;;;6.01;100.00;97955.03;4438789;32;35159;-70
2023/01/10 04:05:57;;;;;;;0.55;0.55;;;;;;;5.86;100.00;97959.53;4439051;32;35180;-68
2023/01/10 04:08:25;;;;;;;0.52;0.52;;;;;;;5.86;100.00;97954.38;4438775;32;34302;-68
2023/01/10 04:10:54;;;;;;;0.40;0.40;;;;;;;6.05;100.00;97960.16;4438596;32;34052;-70
2023/01/10 04:13:22;;;;;;;0.50;0.50;;;;;;;6.00;99.45;97967.13;4437585;32;35019;-67
2023/01/10 04:15:50;;;;;;;0.52;0.52;;;;;;;5.97;100.00;97972.31;4438856;32;34564;-68
2023/01/10 04:18:18;;;;;;;0.40;0.40;;;;;;;5.93;100.00;97954.25;4438796;32;34502;-68
2023/01/10 04:20:46;;;;;;;0.40;0.40;;;;;;;6.07;100.00;97957.53;4437702;32;34621;-68
2023/01/10 04:23:15;;;;;;;0.40;0.40;;;;;;;6.21;98.84;97942.69;4438507;32;35190;-66
2023/01/10 04:25:46;;;;;;;0.40;0.40;;;;;;;6.00;100.00;97945.56;4438824;32;34429;-68
2023/01/10 04:28:14;;;;;;;0.50;0.50;;;;;;;6.06;100.00;97945.50;4437439;32;32588;-67
2023/01/10 04:30:42;;;;;;;0.47;0.47;;;;;;;5.81;99.73;97937.22;4439012;32;34595;-68
2023/01/10 04:33:11;;;;;;;0.57;0.57;;;;;;;5.82;100.00;97937.22;4437261;32;35845;-68
2023/01/10 04:35:39;;;;;;;0.40;0.40;;;;;;;5.82;100.00;97944.09;4438651;32;34415;-66
2023/01/10 04:38:07;;;;;;;0.50;0.50;;;;;;;5.70;100.00;97945.13;4438515;32;33403;-69
2023/01/10 04:40:35;;;;;;;0.50;0.50;;;;;;;5.89;100.00;97954.31;4438714;32;33798;-69
2023/01/10 04:43:03;;;;;;;0.50;0.50;;;;;;;5.75;100.00;97952.78;4437188;32;34764;-67
2023/01/10 04:45:31;;;;;;;0.40;0.40;;;;;;;5.71;100.00;97959.72;4438595;32;34430;-69
2023/01/10 04:47:59;;;;;;;0.50;0.50;;;;;;;5.86;100.00;97969.03;4438305;32;34286;-69
2023/01/10 04:50:28;;;;;;;0.50;0.50;;;;;;;5.71;100.00;97980.41;4438485;32;34088;-73
2023/01/10 04:52:56;;;;;;;0.60;0.60;;;;;;;5.85;100.00;97988.81;4437195;32;35016;-67
2023/01/10 04:55:24;;;;;;;0.50;0.50;;;;;;;6.14;99.36;97990.19;4438088;32;34358;-67
2023/01/10 04:57:52;;;;;;;0.50;0.50;;;;;;;5.84;100.00;97992.28;4438419;32;34120;-70
2023/01/10 05:00:20;;;;;;;0.50;0.50;;;;;;;5.89;100.00;98003.41;4438217;32;33364;-67
2023/01/10 05:02:48;;;;;;;0.50;0.50;;;;;;;5.89;100.00;98008.56;4438220;32;35971;-67
2023/01/10 05:05:16;;;;;;;0.50;0.50;;;;;;;5.85;100.00;98011.22;4438034;32;35092;-66
2023/01/10 05:07:45;;;;;;;0.50;0.50;;;;;;;5.81;100.00;98014.72;4438192;32;33528;-68
2023/01/10 05:10:14;;;;;;;0.50;0.50;;;;;;;6.06;99.36;98018.69;4437916;32;34304;-67
2023/01/10 05:12:44;;;;;;;0.50;0.50;;;;;;;5.58;100.00;98035.66;4438232;32;35013;-68
2023/01/10 05:15:12;;;;;;;0.50;0.50;;;;;;;5.83;100.00;98031.91;4437960;32;34335;-68
2023/01/10 05:17:41;;;;;;;0.50;0.50;;;;;;;6.08;98.78;98036.75;4438120;32;33567;-68
2023/01/10 05:20:09;;;;;;;0.60;0.60;;;;;;;5.99;98.95;98048.06;4437862;32;33885;-68
2023/01/10 05:22:37;;;;;;;0.50;0.50;;;;;;;5.99;99.06;98054.97;4438189;32;35968;-67
2023/01/10 05:25:06;;;;;;;0.52;0.52;;;;;;;6.01;99.00;98048.06;4439365;32;34601;-69
2023/01/10 05:27:34;;;;;;;0.57;0.57;;;;;;;5.94;99.84;98038.66;4440192;32;33464;-68
2023/01/10 05:30:02;;;;;;;0.40;0.40;;;;;;;6.10;99.10;98044.50;4439643;32;33791;-67
2023/01/10 05:32:30;;;;;;;0.40;0.40;;;;;;;6.02;99.73;98047.19;4439987;32;35174;-67
2023/01/10 05:34:59;;;;;;;0.40;0.40;;;;;;;5.98;99.42;98046.38;4439662;32;34480;-68
2023/01/10 05:37:27;;;;;;;0.52;0.52;;;;;;;5.82;100.00;98040.53;4440067;32;34309;-67
2023/01/10 05:39:55;;;;;;;0.50;0.50;;;;;;;5.78;100.00;98036.25;4439706;32;34618;-68
2023/01/10 05:42:23;;;;;;;0.50;0.50;;;;;;;5.55;100.00;98040.84;4439967;32;35871;-67
2023/01/10 05:44:53;;;;;;;0.50;0.50;;;;;;;5.73;100.00;98040.63;4439618;32;34491;-68
2023/01/10 05:47:21;;;;;;;0.50;0.50;;;;;;;5.63;100.00;98039.03;4439971;32;33196;-66
2023/01/10 05:49:49;;;;;;;0.45;0.45;;;;;;;5.73;100.00;98039.78;4439628;32;33969;-67
2023/01/10 05:52:17;;;;;;;0.40;0.40;;;;;;;5.78;100.00;98038.84;4439965;32;35100;-67
2023/01/10 05:54:45;;;;;;;1.25;1.20;;;;;;;5.65;100.00;98042.47;4439629;32;34427;-67
2023/01/10 05:57:13;;;;;;;0.50;0.50;;;;;;;5.69;100.00;98052.72;4439896;32;33653;-66
2023/01/10 05:59:41;;;;;;;0.50;0.50;;;;;;;5.56;100.00;98047.72;4439927;32;33930;-68
2023/01/10 06:02:10;;;;;;;0.50;0.50;;;;;;;5.53;100.00;98058.94;4440104;32;34877;-70
2023/01/10 06:04:38;;;;;;;0.68;0.68;;;;;;;5.34;100.00;98070.34;4439566;32;34040;-68
2023/01/10 06:07:06;;;;;;;0.43;0.43;;;;;;;5.59;100.00;98073.50;4439730;32;33587;-69
2023/01/10 06:09:34;;;;;;;0.57;0.57;;;;;;;5.56;100.00;98078.69;4439547;32;34804;-67
2023/01/10 06:12:03;;;;;;;0.50;0.50;;;;;;;5.35;100.00;98080.66;4439708;32;35147;-65
2023/01/10 06:14:31;;;;;;;0.50;0.50;;;;;;;5.45;100.00;98078.81;4439497;32;35144;-67
2023/01/10 06:16:59;;;;;;;0.50;0.50;;;;;;;5.49;100.00;98081.37;4439899;32;33318;-66
2023/01/10 06:19:27;;;;;;;2.75;0.98;;;;;;;5.41;100.00;98096.06;4439497;32;33993;-67
2023/01/10 06:21:55;;;;;;;0.50;0.50;;;;;;;5.51;100.00;98102.00;4439663;32;35141;-66
2023/01/10 06:24:23;;;;;;;0.50;0.50;;;;;;;5.48;100.00;98112.34;4439314;32;35306;-71
2023/01/10 06:26:51;;;;;;;0.50;0.50;;;;;;;5.48;100.00;98113.19;4439629;32;33558;-66
2023/01/10 06:29:19;;;;;;;0.50;0.50;;;;;;;5.36;100.00;98118.47;4439525;32;33999;-66
2023/01/10 06:31:48;;;;;;;0.40;0.40;;;;;;;5.50;100.00;98126.09;4439536;32;36083;-73
2023/01/10 06:34:16;;;;;;;0.50;0.50;;;;;;;5.31;100.00;98121.13;4439086;32;34440;-66
2023/01/10 06:36:44;;;;;;;0.55;0.55;;;;;;;5.43;100.00;98135.63;4439155;32;33422;-68
2023/01/10 06:39:13;;;;;;;0.50;0.50;;;;;;;5.43;100.00;98135.63;4439318;32;33729;-70
2023/01/10 06:41:41;;;;;;;0.50;0.50;;;;;;;5.37;100.00;98135.69;4439584;32;35863;-68
2023/01/10 06:44:10;;;;;;;0.50;0.50;;;;;;;5.45;100.00;98125.28;4439079;32;34573;-74
2023/01/10 06:46:38;;;;;;;0.50;0.50;;;;;;;5.05;100.00;98129.09;4439754;32;33622;-75
2023/01/10 06:49:08;;;;;;;0.55;0.55;;;;;;;5.26;100.00;98132.38;4439295;32;33947;-69
2023/01/10 06:51:36;;;;;;;0.50;0.50;;;;;;;5.24;100.00;98124.63;4439709;32;35796;-69
2023/01/10 06:54:05;;;;;;;0.50;0.50;;;;;;;5.21;100.00;98126.37;4439243;32;35244;-68
2023/01/10 06:56:34;;;;;;;0.50;0.50;;;;;;;5.35;100.00;98129.69;4439328;32;33364;-71
2023/01/10 06:59:02;;;;;;;0.50;0.50;;;;;;;5.27;100.00;98145.22;4439164;32;33958;-71
2023/01/10 07:01:30;;;;;;;0.50;0.50;;;;;;;5.24;100.00;98149.56;4439528;32;35102;-67
2023/01/10 07:03:59;;;;;;;0.57;0.57;;;;;;;5.11;100.00;98162.56;4439231;32;34335;-70
2023/01/10 07:06:27;;;;;;;0.50;0.50;;;;;;;5.19;100.00;98169.38;4439472;32;34315;-71
2023/01/10 07:08:55;;;;;;;0.50;0.50;;;;;;;5.35;100.00;98172.69;4439348;32;33736;-70
2023/01/10 07:11:23;;;;;;;0.50;0.50;;;;;;;5.32;99.84;98184.78;4408589;32;35083;-69
2023/01/10 07:13:52;;;;;;;0.70;0.70;;;;;;;4.88;100.00;98185.97;4408818;32;34651;-70
2023/01/10 07:16:20;;;;;;;0.50;0.50;;;;;;;5.02;100.00;98197.91;4423991;32;33526;-71
2023/01/10 07:18:49;;;;;;;0.50;0.50;;;;;;;5.12;100.00;98203.00;4423913;32;34756;-72
2023/01/10 07:21:18;;;;;;;0.50;0.50;;;;;;;5.07;100.00;98204.75;4424029;32;35328;-69
2023/01/10 07:23:48;;;;;;;0.50;0.50;;;;;;;5.19;100.00;98214.12;4423753;32;34413;-72
2023/01/10 07:26:18;;;;;;;0.50;0.50;;;;;;;5.13;100.00;98230.53;4424046;32;33062;-71
2023/01/10 07:28:49;;;;;;;0.60;0.60;;;;;;;5.19;100.00;98232.22;4424185;32;34319;-70
2023/01/10 07:31:19;;;;;;;0.50;0.50;;;;;;;5.19;100.00;98233.91;4408608;32;34965;-71
2023/01/10 07:33:47;;;;;;;0.50;0.50;;;;;;;5.31;100.00;98245.03;4408644;32;34355;-72
2023/01/10 07:36:15;;;;;;;0.80;0.80;;;;;;;5.18;100.00;98233.06;4422126;32;33608;-69
2023/01/10 07:38:44;;;;;;;0.50;0.50;;;;;;;5.02;100.00;98237.47;4423841;32;34014;-72
2023/01/10 07:41:12;;;;;;;0.50;0.50;;;;;;;5.02;100.00;98240.03;4423825;32;34642;-72
2023/01/10 07:43:40;;;;;;;0.80;0.80;;;;;;;5.15;100.00;98243.41;4423761;32;34322;-73
2023/01/10 07:46:10;;;;;;;0.50;0.50;;;;;;;5.05;100.00;98255.50;4423560;32;33480;-72
2023/01/10 07:48:40;;;;;;;0.50;0.50;;;;;;;5.10;100.00;98258.94;4423840;32;33833;-72
2023/01/10 07:51:09;;;;;;;0.50;0.50;;;;;;;5.24;100.00;98260.53;4423579;32;36730;-72
2023/01/10 07:53:37;;;;;;;0.55;0.55;;;;;;;5.31;100.00;98269.97;4423778;32;34412;-70
2023/01/10 07:56:06;;;;;;;0.70;0.70;;;;;;;5.33;100.00;98278.56;4423562;32;34353;-69
2023/01/10 07:58:34;;;;;;;0.50;0.50;;;;;;;5.22;100.00;98288.09;4423849;32;33833;-70
2023/01/10 08:01:04;;;;;;;0.50;0.50;;;;;;;5.36;100.00;98290.59;4423767;32;34998;-68
2023/01/10 08:03:32;;;;;;;0.50;0.50;;;;;;;5.48;99.74;98295.66;4423816;32;34429;-68
2023/01/10 08:06:05;;;;;;;0.50;0.50;;;;;;;5.26;100.00;98297.53;4423904;32;33566;-70
2023/01/10 08:08:33;;;;;;;0.60;0.60;;;;;;;5.34;99.19;98305.22;4423855;32;34850;-70
2023/01/10 08:11:03;;;;;;;0.60;0.60;;;;;;;5.23;100.00;98302.72;4423672;32;34905;-73
2023/01/10 08:13:32;;;;;;;0.50;0.50;;;;;;;5.38;99.46;98318.09;4423608;32;34476;-71
2023/01/10 08:16:06;;;;;;;0.50;0.50;;;;;;;5.61;98.21;98325.72;4421064;32;33549;-69
2023/01/10 08:18:34;;;;;;;0.50;0.50;;;;;;;5.42;99.13;98321.53;4422540;32;33549;-68
2023/01/10 08:21:03;;;;;;;0.40;0.40;;;;;;;5.22;100.00;98331.97;4425666;32;35017;-68
2023/01/10 08:23:31;;;;;;;0.60;0.60;;;;;;;5.39;100.00;98335.31;4438629;32;34530;-68
2023/01/10 08:25:59;;;;;;;0.70;0.70;;;;;;;5.53;98.67;98352.44;4438584;32;33698;-69
2023/01/10 08:28:28;;;;;;;0.50;0.50;;;;;;;5.38;98.80;98354.22;4438822;32;33973;-71
2023/01/10 08:30:56;;;;;;;0.60;0.60;;;;;;;5.23;100.00;98369.81;4438470;32;35132;-70
2023/01/10 08:33:26;;;;;;;0.60;0.60;;;;;;;5.24;100.00;98368.94;4437507;32;34353;-68
2023/01/10 08:35:54;;;;;;;0.80;0.80;;;;;;;5.29;99.89;98374.94;4438399;32;33554;-67
2023/01/10 08:38:22;;;;;;;0.50;0.50;;;;;;;5.30;99.99;98376.66;4438709;32;34134;-68
2023/01/10 08:40:50;;;;;;;0.98;0.98;;;;;;;5.35;99.32;98380.09;4438603;32;35012;-67
2023/01/10 08:43:20;;;;;;;0.50;0.50;;;;;;;5.30;100.00;98395.59;4438528;32;35387;-69
2023/01/10 08:45:48;;;;;;;0.50;0.50;;;;;;;5.37;100.00;98382.66;4438315;32;33563;-72
2023/01/10 08:48:17;;;;;;;0.50;0.50;;;;;;;5.35;100.00;98395.56;4437406;32;35005;-69
2023/01/10 08:50:45;;;;;;;0.50;0.50;;;;;;;5.35;99.96;98384.38;4438294;32;35024;-69
2023/01/10 08:53:14;;;;;;;0.50;0.50;;;;;;;5.03;100.00;98401.72;4438487;32;34532;-68
2023/01/10 08:55:42;;;;;;;0.50;0.50;;;;;;;5.23;100.00;98403.38;4438499;32;33525;-69
2023/01/10 08:58:10;;;;;;;0.50;0.50;;;;;;;5.30;99.49;98412.81;4438781;32;33947;-68
2023/01/10 09:00:40;;;;;;;0.50;0.50;;;;;;;5.12;100.00;98409.44;4440163;32;35978;-70
2023/01/10 09:03:08;;;;;;;0.50;0.50;;;;;;;5.30;100.00;98413.66;4440308;32;35192;-71
2023/01/10 09:05:38;;;;;;;0.50;0.50;;;;;;;5.19;100.00;98425.75;4440127;32;35600;-71
2023/01/10 09:08:06;;;;;;;0.50;0.50;;;;;;;5.11;100.00;98428.34;4440218;32;34037;-68
2023/01/10 09:10:35;;;;;;;0.50;0.50;;;;;;;5.32;100.00;98440.31;4439854;32;35067;-70
2023/01/10 09:13:04;;;;;;;0.50;0.50;;;;;;;5.13;100.00;98446.41;4440176;32;35339;-69
2023/01/10 09:15:34;;;;;;;0.50;0.50;;;;;;;5.37;98.92;98448.03;4439964;32;33755;-71
2023/01/10 09:18:04;;;;;;;0.50;0.50;;;;;;;5.37;98.82;98454.94;4440051;32;34636;-70
2023/01/10 09:20:35;;;;;;;0.50;0.50;;;;;;;5.22;100.00;98450.69;4440006;32;34923;-70
2023/01/10 09:23:11;;;;;;;0.57;0.57;;;;;;;4.96;100.00;98461.97;4440044;32;33681;-70
2023/01/10 09:25:40;;;;;;;0.50;0.50;;;;;;;5.39;99.52;98459.22;4439778;32;34250;-69
2023/01/10 09:28:08;;;;;;;0.50;0.50;;;;;;;5.18;99.71;98469.63;4440147;32;33777;-69
2023/01/10 09:30:36;;;;;;;0.73;0.68;;;;;;;5.05;100.00;98472.25;4438769;32;36010;-67
2023/01/10 09:33:06;;;;;;;0.50;0.50;;;;;;;5.41;98.59;98482.44;4439897;32;35120;-69
2023/01/10 09:35:36;;;;;;;0.73;0.73;;;;;;;5.17;99.62;98491.13;4439711;32;34300;-68
2023/01/10 09:38:08;;;;;;;2.25;0.98;;;;;;;5.41;97.42;98491.03;4439922;32;34576;-69
2023/01/10 09:41:11;;;;;;;0.50;0.50;;;;;;;5.40;97.45;98491.94;4438530;32;35000;-69
2023/01/10 09:44:13;;;;;;;0.50;0.50;;;;;;;5.29;97.54;98507.47;4440030;32;34331;-68
2023/01/10 09:47:01;;;;;;;0.50;0.50;;;;;;;4.96;100.00;98521.28;4439984;32;34332;-66
2023/01/10 09:49:56;;;;;;;0.50;0.50;;;;;;;5.10;99.37;98524.69;4439641;32;33927;-70
2023/01/10 09:52:31;;;;;;;0.50;0.50;;;;;;;5.17;98.66;98520.41;4439967;32;34985;-67
2023/01/10 09:55:25;;;;;;;0.50;0.50;;;;;;;5.24;97.46;98524.69;4438695;32;35272;-71
2023/01/10 09:57:57;;;;;;;0.50;0.50;;;;;;;5.36;96.93;98531.50;4438350;32;32449;-68
2023/01/10 10:00:50;;;;;;;0.50;0.50;;;;;;;5.12;97.02;98543.63;4426423;32;33689;-69
2023/01/10 10:03:41;;;;;;;0.50;0.50;;;;;;;4.91;100.00;98543.66;4426062;32;34689;-69
2023/01/10 10:06:11;;;;;;;0.77;0.77;;;;;;;5.02;99.39;98544.50;4435680;32;34602;-71
2023/01/10 10:08:41;;;;;;;0.50;0.50;;;;;;;5.16;99.92;98554.78;4439814;32;33809;-67
2023/01/10 10:11:29;;;;;;;0.50;0.50;;;;;;;4.98;100.00;98553.09;4438675;32;33900;-70
2023/01/10 10:14:37;;;;;;;0.50;0.50;;;;;;;5.20;99.09;98540.16;4439327;32;36171;-69
2023/01/10 10:17:20;;;;;;;0.50;0.50;;;;;;;5.31;98.71;98543.56;4439686;32;34409;-68
2023/01/10 10:20:11;;;;;;;0.60;0.60;;;;;;;5.19;100.00;98546.16;4425789;32;33607;-70
2023/01/10 10:22:54;;;;;;;0.50;0.50;;;;;;;5.12;100.00;98538.47;4439884;32;33863;-69
2023/01/10 10:26:01;;;;;;;0.50;0.50;;;;;;;4.99;100.00;98552.22;4439541;32;35227;-69
2023/01/10 10:28:58;;;;;;;0.50;0.50;;;;;;;5.15;100.00;98558.22;4439194;32;34489;-68
2023/01/10 10:31:46;;;;;;;0.50;0.50;;;;;;;5.21;100.00;98552.22;4439745;32;33449;-68
2023/01/10 10:34:28;;;;;;;0.50;0.50;;;;;;;5.32;100.00;98560.78;4439324;32;33930;-69
2023/01/10 10:37:16;;;;;;;0.50;0.50;;;;;;;5.21;100.00;98562.53;4439660;32;35138;-66
2023/01/10 10:39:56;;;;;;;0.52;0.52;;;;;;;5.40;100.00;98563.34;4439323;32;34253;-67
2023/01/10 10:42:32;;;;;;;0.80;0.80;;;;;;;5.20;100.00;98565.97;4439496;32;33352;-66
2023/01/10 10:45:10;;;;;;;0.50;0.50;;;;;;;4.99;100.00;98572.88;4425592;32;34210;-68
2023/01/10 10:47:41;;;;;;;0.50;0.50;;;;;;;5.26;100.00;98579.72;4438701;32;35087;-66
2023/01/10 10:50:21;;;;;;;0.50;0.50;;;;;;;5.33;100.00;98593.50;4438300;32;34095;-67
2023/01/10 10:52:50;;;;;;;0.50;0.50;;;;;;;5.22;100.00;98587.47;4439369;32;33493;-66
2023/01/10 10:55:29;;;;;;;0.57;0.57;;;;;;;5.23;100.00;98596.94;4438130;32;33901;-71
2023/01/10 10:58:00;;;;;;;0.60;0.60;;;;;;;5.27;100.00;98596.91;4438370;32;35219;-69
2023/01/10 11:00:29;;;;;;;0.50;0.50;;;;;;;5.21;100.00;98601.25;4407740;32;34435;-70
2023/01/10 11:03:09;;;;;;;0.50;0.50;;;;;;;5.31;100.00;98602.94;4408788;32;34029;-69
2023/01/10 11:05:42;;;;;;;0.50;0.50;;;;;;;5.02;100.00;98609.00;4407637;32;33939;-68
2023/01/10 11:08:12;;;;;;;0.50;0.50;;;;;;;5.21;100.00;98619.31;4421033;32;35113;-70
2023/01/10 11:10:43;;;;;;;0.50;0.50;;;;;;;5.17;100.00;98612.41;4423065;32;33775;-67
2023/01/10 11:13:18;;;;;;;0.50;0.50;;;;;;;5.43;100.00;98623.56;4423003;32;32738;-71
2023/01/10 11:15:48;;;;;;;0.50;0.50;;;;;;;5.39;99.50;98614.13;4423230;32;33833;-71
2023/01/10 11:18:24;;;;;;;0.50;0.50;;;;;;;5.43;100.00;98615.81;4422884;32;35022;-69
2023/01/10 11:21:05;;;;;;;0.50;0.50;;;;;;;5.38;100.00;98627.88;4423533;32;35312;-70
2023/01/10 11:23:53;;;;;;;0.50;0.50;;;;;;;5.23;100.00;98627.91;4422515;32;33352;-70
2023/01/10 11:26:33;;;;;;;0.40;0.40;;;;;;;5.33;100.00;98639.97;4422862;32;34040;-70
2023/01/10 11:29:14;;;;;;;0.50;0.50;;;;;;;5.38;100.00;98643.38;4422903;32;35015;-68
2023/01/10 11:31:45;;;;;;;0.40;0.40;;;;;;;5.38;99.08;98648.53;4422795;32;34462;-69
2023/01/10 11:34:20;;;;;;;1.25;1.15;;;;;;;5.26;100.00;98662.34;4416675;32;34278;-69
2023/01/10 11:36:57;;;;;;;0.47;0.47;;;;;;;5.17;100.00;98669.19;4408671;32;34523;-72
2023/01/10 11:39:26;;;;;;;0.50;0.50;;;;;;;5.28;100.00;98665.75;4415773;32;34903;-68
2023/01/10 11:41:57;;;;;;;0.47;0.47;;;;;;;5.10;100.00;98671.78;4422682;32;35301;-66
2023/01/10 11:44:27;;;;;;;0.60;0.60;;;;;;;5.37;99.91;98670.06;4415977;32;33120;-68
2023/01/10 11:46:58;;;;;;;0.50;0.50;;;;;;;5.20;100.00;98671.78;4408681;32;34016;-68
2023/01/10 11:49:40;;;;;;;0.50;0.50;;;;;;;5.05;100.00;98673.50;4414037;32;35124;-68
2023/01/10 11:52:42;;;;;;;0.50;0.50;;;;;;;5.23;100.00;98671.78;4422556;32;33615;-70
2023/01/10 11:55:19;;;;;;;0.50;0.50;;;;;;;5.59;98.57;98682.94;4386884;32;33704;-72
2023/01/10 11:57:58;;;;;;;0.50;0.50;;;;;;;5.42;99.00;98675.25;4408464;32;33323;-71
2023/01/10 12:00:31;;;;;;;0.50;0.50;;;;;;;5.15;100.00;98687.25;4433769;32;35885;-69
2023/01/10 12:03:00;;;;;;;0.50;0.50;;;;;;;5.44;100.00;98682.09;4439167;32;34433;-70
2023/01/10 12:05:28;;;;;;;1.05;1.05;;;;;;;5.66;99.22;98689.81;4438845;32;33159;-72
2023/01/10 12:08:05;;;;;;;0.50;0.50;;;;;;;5.42;100.00;98691.59;4438965;32;33870;-68
2023/01/10 12:10:34;;;;;;;0.55;0.55;;;;;;;5.23;100.00;98692.44;4438880;32;35149;-72
2023/01/10 12:13:15;;;;;;;0.40;0.40;;;;;;;5.19;100.00;98701.03;4438948;32;35227;-72